Sheldon, IA

2:24 AM CDT on April 28, 2017 (GMT -0500)
Sheldon Municipal

Weather History for KSHL - March, 2014

Change the Weather History Date:

Tuesday, March 11, 2014

  Actual Average Record
Temperature  
Mean Temperature 36 °F -  
Max Temperature 42 °F 40 °F 71 °F (2016)
Min Temperature 30 °F 22 °F -7 °F (1956)
Degree Days  
Heating Degree Days 29    
Moisture  
Dew Point 33 °F    
Average Humidity 86    
Maximum Humidity 100    
Minimum Humidity 75    
Precipitation  
Precipitation 0.07 in - - ()
Sea Level Pressure  
Sea Level Pressure 29.83 in    
Wind  
Wind Speed 18 mph (NNE)    
Max Wind Speed 30 mph    
Max Gust Speed 37 mph    
Visibility 10 miles    
Events Rain , Snow    
Averages and records for this station are not official NWS values.
T = Trace of Precipitation, MM = Missing Value Source: NWS Daily Summary

Daily Weather History Graph

Daily Weather History Graph

Search for Another Location

Airport or City:

Trip Planner

Search our weather history database for the weather conditions in past years. The results will help you decide how hot, cold, wet, or windy it might be!

Date:

Astronomy

Mar. 11, 2014 Rise Set
Actual Time 7:42 AM CDT 7:24 PM CDT
Civil Twilight 7:14 AM CDT 7:53 PM CDT
Nautical Twilight 6:41 AM CDT 8:26 PM CDT
Astronomical Twilight 6:07 AM CDT 8:59 PM CDT
Moon 2:56 PM CDT (3/11) 4:42 AM CDT (3/11)
Length of Visible Light 12h 39m
Length of Day
11h 42m
Waxing Gibbous, 78% of the Moon is Illuminated
Mar 11
Waxing Gibbous
Mar 16
Full
Mar 23
Last Quarter
Mar 30
New
Apr 7
First Quarter

Hourly Weather History & Observations

Time (CDT) Temp. Windchill Dew Point Humidity Pressure Visibility Wind Dir Wind Speed Gust Speed Precip Events Conditions
12:15 AM 41.0 °F 34.3 °F 39.2 °F 93% 29.64 in 10.0 mi ENE 11.5 mph - N/A   Overcast
12:35 AM 41.0 °F 34.3 °F 37.4 °F 87% 29.64 in 10.0 mi ENE 11.5 mph - N/A   Overcast
12:55 AM 42.8 °F 35.8 °F 39.2 °F 87% 29.65 in 10.0 mi ENE 13.8 mph - N/A   Overcast
1:15 AM 42.8 °F 35.4 °F 39.2 °F 87% 29.64 in 10.0 mi ENE 15.0 mph - N/A   Overcast
1:35 AM 42.8 °F 34.8 °F 37.4 °F 81% 29.64 in 10.0 mi ENE 17.3 mph - N/A   Overcast
1:55 AM 41.0 °F 32.2 °F 37.4 °F 87% 29.63 in 10.0 mi ENE 18.4 mph - N/A   Mostly Cloudy
2:15 AM 41.0 °F 32.8 °F 35.6 °F 81% 29.63 in 10.0 mi ENE 16.1 mph - N/A   Mostly Cloudy
2:35 AM 41.0 °F 33.1 °F 35.6 °F 81% 29.65 in 10.0 mi NE 15.0 mph - N/A   Partly Cloudy
2:55 AM 41.0 °F 32.5 °F 35.6 °F 81% 29.64 in 10.0 mi ENE 17.3 mph - N/A   Partly Cloudy
3:15 AM 41.0 °F 32.8 °F 33.8 °F 76% 29.64 in 10.0 mi ENE 16.1 mph - N/A   Partly Cloudy
3:35 AM 41.0 °F 33.1 °F 35.6 °F 81% 29.63 in 10.0 mi ENE 15.0 mph - N/A   Clear
3:55 AM 41.0 °F 32.8 °F 35.6 °F 81% 29.62 in 10.0 mi ENE 16.1 mph - N/A   Partly Cloudy
4:15 AM 41.0 °F 32.2 °F 33.8 °F 76% 29.61 in 10.0 mi ENE 18.4 mph - N/A   Scattered Clouds
4:35 AM 41.0 °F 32.2 °F 33.8 °F 76% 29.61 in 10.0 mi ENE 18.4 mph 25.3 mph N/A   Partly Cloudy
4:55 AM 39.2 °F 29.6 °F 33.8 °F 81% 29.61 in 10.0 mi NE 19.6 mph 26.5 mph N/A   Scattered Clouds
5:15 AM 39.2 °F 29.6 °F 33.8 °F 81% 29.62 in 10.0 mi NE 19.6 mph 29.9 mph N/A   Mostly Cloudy
5:35 AM 39.2 °F 28.7 °F 33.8 °F 81% 29.62 in 10.0 mi NE 23.0 mph 28.8 mph N/A   Scattered Clouds
5:55 AM 39.2 °F 29.0 °F 33.8 °F 81% 29.63 in 10.0 mi NE 21.9 mph 29.9 mph N/A   Scattered Clouds
6:15 AM 39.2 °F 28.0 °F 33.8 °F 81% 29.63 in 10.0 mi NE 26.5 mph 33.4 mph N/A   Mostly Cloudy
6:35 AM 37.4 °F 25.6 °F 33.8 °F 87% 29.64 in 10.0 mi NE 26.5 mph 32.2 mph N/A   Mostly Cloudy
6:55 AM 37.4 °F 25.9 °F 33.8 °F 87% 29.66 in 10.0 mi NE 25.3 mph 33.4 mph N/A   Mostly Cloudy
7:15 AM 37.4 °F 25.9 °F 35.6 °F 93% 29.67 in 10.0 mi NE 25.3 mph - N/A   Overcast
7:35 AM 37.4 °F 26.4 °F 35.6 °F 93% 29.68 in 10.0 mi NE 23.0 mph 32.2 mph N/A   Mostly Cloudy
7:55 AM 37.4 °F 26.6 °F 35.6 °F 93% 29.70 in 10.0 mi NE 21.9 mph 33.4 mph N/A   Overcast
8:15 AM 37.4 °F 26.9 °F 35.6 °F 93% 29.72 in 10.0 mi NNE 20.7 mph 28.8 mph N/A   Overcast
8:35 AM 37.4 °F 26.4 °F 35.6 °F 93% 29.73 in 10.0 mi NNE 23.0 mph 29.9 mph N/A   Overcast
8:55 AM 37.4 °F 25.9 °F 35.6 °F 93% 29.75 in 10.0 mi NNE 25.3 mph 34.5 mph N/A   Overcast
9:15 AM 37.4 °F 25.0 °F 35.6 °F 93% 29.76 in 10.0 mi NNE 29.9 mph - N/A   Overcast
9:35 AM 37.4 °F 25.9 °F 33.8 °F 87% 29.77 in 10.0 mi NNE 25.3 mph 36.8 mph N/A   Overcast
9:55 AM 35.6 °F 23.4 °F 33.8 °F 93% 29.79 in 10.0 mi NNE 25.3 mph 32.2 mph N/A   Overcast
10:15 AM 35.6 °F 24.5 °F 33.8 °F 93% 29.80 in 10.0 mi NNE 20.7 mph 29.9 mph N/A   Overcast
10:35 AM 35.6 °F 24.5 °F 33.8 °F 93% 29.81 in 10.0 mi NNE 20.7 mph 31.1 mph N/A Rain Light Rain
10:55 AM 35.6 °F 23.7 °F 33.8 °F 93% 29.81 in 9.0 mi NNE 24.2 mph - N/A Rain Light Rain
11:15 AM 35.6 °F 24.5 °F 33.8 °F 93% 29.82 in 6.0 mi NNE 20.7 mph 31.1 mph N/A Rain Light Rain
11:35 AM 35.6 °F 24.8 °F 33.8 °F 93% 29.84 in 5.0 mi NNE 19.6 mph 28.8 mph N/A   Scattered Clouds
11:55 AM 35.6 °F 25.5 °F 33.8 °F 93% 29.85 in - NNE 17.3 mph 26.5 mph 0.02 in   Unknown
12:15 PM 33.8 °F 23.2 °F 33.8 °F 100% 29.85 in 4.0 mi NNE 17.3 mph 24.2 mph N/A Snow Light Snow
12:35 PM 33.8 °F 22.8 °F 33.8 °F 100% 29.85 in 4.0 mi NNE 18.4 mph - N/A Snow Light Snow
12:55 PM 35.6 °F 24.8 °F 33.8 °F 93% 29.85 in 5.0 mi NNE 19.6 mph - 0.04 in Snow Light Snow
1:15 PM 35.6 °F 25.5 °F 35.6 °F 100% 29.85 in 9.0 mi NNE 17.3 mph 23.0 mph N/A Rain Light Rain
1:35 PM 35.6 °F 25.2 °F 35.6 °F 100% 29.85 in 10.0 mi NNE 18.4 mph - N/A   Scattered Clouds
1:55 PM 35.6 °F 24.5 °F 33.8 °F 93% 29.85 in 10.0 mi NNE 20.7 mph 27.6 mph 0.01 in   Scattered Clouds
2:15 PM 37.4 °F 27.2 °F 33.8 °F 87% 29.85 in 10.0 mi NNE 19.6 mph 26.5 mph N/A   Mostly Cloudy
2:35 PM 37.4 °F 27.5 °F 32.0 °F 81% 29.86 in 10.0 mi NNE 18.4 mph 25.3 mph N/A   Scattered Clouds
2:55 PM 37.4 °F 27.8 °F 33.8 °F 87% 29.87 in 10.0 mi NNE 17.3 mph 24.2 mph N/A   Clear
3:15 PM 37.4 °F 26.6 °F 32.0 °F 81% 29.89 in 10.0 mi North 21.9 mph - N/A   Clear
3:35 PM 37.4 °F 27.5 °F 32.0 °F 81% 29.89 in 10.0 mi North 18.4 mph 24.2 mph N/A   Clear
3:55 PM 37.4 °F 28.2 °F 32.0 °F 81% 29.91 in 10.0 mi North 16.1 mph 23.0 mph N/A   Clear
4:15 PM 39.2 °F 29.6 °F 32.0 °F 75% 29.92 in 10.0 mi North 19.6 mph 25.3 mph N/A   Clear
4:35 PM 39.2 °F 29.3 °F 33.8 °F 81% 29.91 in 10.0 mi North 20.7 mph - N/A   Clear
4:55 PM 39.2 °F 29.6 °F 32.0 °F 75% 29.93 in 10.0 mi North 19.6 mph 27.6 mph N/A   Clear
5:15 PM 39.2 °F 29.8 °F 33.8 °F 81% 29.95 in 10.0 mi North 18.4 mph 26.5 mph N/A   Clear
5:35 PM 39.2 °F 30.5 °F 33.8 °F 81% 29.95 in 10.0 mi North 16.1 mph 23.0 mph N/A   Clear
5:55 PM 39.2 °F 30.5 °F 33.8 °F 81% 29.96 in 10.0 mi North 16.1 mph 23.0 mph N/A   Partly Cloudy
6:15 PM 39.2 °F 29.8 °F 33.8 °F 81% 29.97 in 10.0 mi North 18.4 mph - N/A   Partly Cloudy
6:35 PM 39.2 °F 29.8 °F 33.8 °F 81% 29.98 in 10.0 mi North 18.4 mph - N/A   Scattered Clouds
6:55 PM 39.2 °F 29.3 °F 33.8 °F 81% 29.99 in 10.0 mi North 20.7 mph 26.5 mph N/A   Scattered Clouds
7:15 PM 37.4 °F 28.5 °F 32.0 °F 81% 30.00 in 10.0 mi North 15.0 mph 24.2 mph N/A   Partly Cloudy
7:35 PM 35.6 °F 25.9 °F 32.0 °F 87% 30.01 in 10.0 mi North 16.1 mph - N/A   Clear
7:55 PM 33.8 °F 23.2 °F 30.2 °F 87% 30.02 in 10.0 mi North 17.3 mph - N/A   Clear
8:15 PM 33.8 °F 23.5 °F 30.2 °F 87% 30.04 in 10.0 mi North 16.1 mph - N/A   Clear
8:35 PM 33.8 °F 24.3 °F 30.2 °F 87% 30.04 in 10.0 mi NNW 13.8 mph - N/A   Clear
8:55 PM 33.8 °F 23.5 °F 28.4 °F 81% 30.05 in 10.0 mi NNW 16.1 mph - N/A   Clear
9:15 PM 33.8 °F 23.9 °F 28.4 °F 81% 30.05 in - NNW 15.0 mph 20.7 mph N/A   Clear
9:35 PM 33.8 °F 21.0 °F 28.4 °F 81% 30.05 in 10.0 mi North 25.3 mph - N/A   Clear
9:55 PM 32.0 °F 19.8 °F 26.6 °F 80% 30.06 in 10.0 mi North 20.7 mph 28.8 mph N/A   Clear
10:15 PM 32.0 °F 18.9 °F 26.6 °F 80% 30.06 in 10.0 mi North 24.2 mph 33.4 mph N/A   Clear
10:35 PM 32.0 °F 19.2 °F 26.6 °F 80% 30.06 in 10.0 mi North 23.0 mph 29.9 mph N/A   Clear
10:55 PM 30.2 °F 17.4 °F 24.8 °F 80% 30.07 in 10.0 mi North 20.7 mph 28.8 mph N/A   Clear
11:15 PM 30.2 °F 18.1 °F 24.8 °F 80% 30.07 in 10.0 mi North 18.4 mph 26.5 mph N/A   Clear
11:35 PM 30.2 °F 18.9 °F 24.8 °F 80% 30.07 in 10.0 mi North 16.1 mph - N/A   Clear
11:55 PM 30.2 °F 18.5 °F 24.8 °F 80% 30.08 in 10.0 mi North 17.3 mph - N/A   Clear